sensor_id;sensor_type;location;lat;lon;timestamp;noise_LAeq;noise_LA_min;noise_LA_max;noise_LA01;noise_LA95
60503;Laerm;51448;51.660;5.824;2024-01-10T00:02:09;41.56;32.30;58.29;;
60503;Laerm;51448;51.660;5.824;2024-01-10T00:04:37;41.42;33.06;58.38;;
60503;Laerm;51448;51.660;5.824;2024-01-10T00:07:04;35.87;32.38;57.78;;
60503;Laerm;51448;51.660;5.824;2024-01-10T00:09:32;41.33;32.93;58.31;;
60503;Laerm;51448;51.660;5.824;2024-01-10T00:12:00;34.88;32.73;50.14;;
60503;Laerm;51448;51.660;5.824;2024-01-10T00:14:27;41.57;32.63;58.49;;
60503;Laerm;51448;51.660;5.824;2024-01-10T00:16:55;41.68;32.80;58.02;;
60503;Laerm;51448;51.660;5.824;2024-01-10T00:19:22;34.81;32.92;51.93;;
60503;Laerm;51448;51.660;5.824;2024-01-10T00:21:50;41.53;32.82;58.27;;
60503;Laerm;51448;51.660;5.824;2024-01-10T00:24:18;36.83;32.71;54.41;;
60503;Laerm;51448;51.660;5.824;2024-01-10T00:26:45;40.47;32.43;58.09;;
60503;Laerm;51448;51.660;5.824;2024-01-10T00:29:13;40.97;32.39;58.28;;
60503;Laerm;51448;51.660;5.824;2024-01-10T00:31:41;34.34;32.20;46.34;;
60503;Laerm;51448;51.660;5.824;2024-01-10T00:34:09;41.19;32.51;58.41;;
60503;Laerm;51448;51.660;5.824;2024-01-10T00:36:36;41.37;32.27;58.61;;
60503;Laerm;51448;51.660;5.824;2024-01-10T00:39:04;34.32;32.38;48.56;;
60503;Laerm;51448;51.660;5.824;2024-01-10T00:41:31;41.50;31.86;58.72;;
60503;Laerm;51448;51.660;5.824;2024-01-10T00:43:59;39.03;31.83;54.74;;
60503;Laerm;51448;51.660;5.824;2024-01-10T00:46:26;41.03;32.31;58.31;;
60503;Laerm;51448;51.660;5.824;2024-01-10T00:48:54;41.24;32.24;58.65;;
60503;Laerm;51448;51.660;5.824;2024-01-10T00:51:22;37.06;32.49;58.35;;
60503;Laerm;51448;51.660;5.824;2024-01-10T00:53:49;41.04;33.13;58.19;;
60503;Laerm;51448;51.660;5.824;2024-01-10T00:56:17;36.62;32.58;54.22;;
60503;Laerm;51448;51.660;5.824;2024-01-10T00:58:44;39.84;32.29;58.33;;
60503;Laerm;51448;51.660;5.824;2024-01-10T01:01:12;41.22;32.48;58.31;;
60503;Laerm;51448;51.660;5.824;2024-01-10T01:03:40;34.76;32.29;51.30;;
60503;Laerm;51448;51.660;5.824;2024-01-10T01:06:07;41.11;32.57;58.23;;
60503;Laerm;51448;51.660;5.824;2024-01-10T01:08:35;41.06;33.13;58.19;;
60503;Laerm;51448;51.660;5.824;2024-01-10T01:11:02;35.83;32.23;51.74;;
60503;Laerm;51448;51.660;5.824;2024-01-10T01:13:30;41.16;32.73;58.01;;
60503;Laerm;51448;51.660;5.824;2024-01-10T01:15:58;34.20;32.31;43.38;;
60503;Laerm;51448;51.660;5.824;2024-01-10T01:18:25;40.99;32.26;58.43;;
60503;Laerm;51448;51.660;5.824;2024-01-10T01:20:53;41.57;32.26;59.27;;
60503;Laerm;51448;51.660;5.824;2024-01-10T01:23:20;33.98;32.08;54.34;;
60503;Laerm;51448;51.660;5.824;2024-01-10T01:26:05;40.73;31.94;58.64;;
60503;Laerm;51448;51.660;5.824;2024-01-10T01:28:33;41.10;31.97;58.70;;
60503;Laerm;51448;51.660;5.824;2024-01-10T01:31:00;36.48;32.11;57.68;;
60503;Laerm;51448;51.660;5.824;2024-01-10T01:33:28;41.78;32.09;58.61;;
60503;Laerm;51448;51.660;5.824;2024-01-10T01:35:55;35.22;32.02;54.36;;
60503;Laerm;51448;51.660;5.824;2024-01-10T01:38:23;41.07;32.02;58.28;;
60503;Laerm;51448;51.660;5.824;2024-01-10T01:40:52;41.84;32.29;58.62;;
60503;Laerm;51448;51.660;5.824;2024-01-10T01:43:23;34.75;32.48;48.73;;
60503;Laerm;51448;51.660;5.824;2024-01-10T01:45:54;41.76;32.80;58.49;;
60503;Laerm;51448;51.660;5.824;2024-01-10T01:48:24;39.85;31.88;58.69;;
60503;Laerm;51448;51.660;5.824;2024-01-10T01:50:57;42.29;32.15;63.15;;
60503;Laerm;51448;51.660;5.824;2024-01-10T01:53:27;41.28;32.36;58.49;;
60503;Laerm;51448;51.660;5.824;2024-01-10T01:55:57;34.96;32.02;48.87;;
60503;Laerm;51448;51.660;5.824;2024-01-10T01:58:26;41.77;32.55;58.65;;
60503;Laerm;51448;51.660;5.824;2024-01-10T02:00:54;41.65;32.40;58.63;;
60503;Laerm;51448;51.660;5.824;2024-01-10T02:03:21;36.18;32.67;54.90;;
60503;Laerm;51448;51.660;5.824;2024-01-10T02:05:50;41.35;32.12;58.72;;
60503;Laerm;51448;51.660;5.824;2024-01-10T02:08:17;37.10;32.13;54.70;;
60503;Laerm;51448;51.660;5.824;2024-01-10T02:10:45;40.44;32.13;58.58;;
60503;Laerm;51448;51.660;5.824;2024-01-10T02:13:12;41.41;32.03;58.57;;
60503;Laerm;51448;51.660;5.824;2024-01-10T02:15:40;34.94;32.10;52.16;;
60503;Laerm;51448;51.660;5.824;2024-01-10T02:18:08;41.40;31.91;58.38;;
60503;Laerm;51448;51.660;5.824;2024-01-10T02:20:38;41.01;31.43;58.58;;
60503;Laerm;51448;51.660;5.824;2024-01-10T02:23:06;34.27;32.04;48.49;;
60503;Laerm;51448;51.660;5.824;2024-01-10T02:25:34;41.38;31.80;58.51;;
60503;Laerm;51448;51.660;5.824;2024-01-10T02:28:02;34.25;31.90;46.29;;
60503;Laerm;51448;51.660;5.824;2024-01-10T02:30:30;41.56;32.14;58.52;;
60503;Laerm;51448;51.660;5.824;2024-01-10T02:32:58;41.26;31.69;58.58;;
60503;Laerm;51448;51.660;5.824;2024-01-10T02:35:26;33.86;32.09;42.97;;
60503;Laerm;51448;51.660;5.824;2024-01-10T02:37:54;41.20;32.01;58.45;;
60503;Laerm;51448;51.660;5.824;2024-01-10T02:40:22;38.83;32.87;58.51;;
60503;Laerm;51448;51.660;5.824;2024-01-10T02:42:49;40.01;32.23;58.84;;
60503;Laerm;51448;51.660;5.824;2024-01-10T02:45:18;41.79;32.14;58.82;;
60503;Laerm;51448;51.660;5.824;2024-01-10T02:47:46;34.59;32.48;44.80;;
60503;Laerm;51448;51.660;5.824;2024-01-10T02:50:13;41.66;32.73;58.77;;
60503;Laerm;51448;51.660;5.824;2024-01-10T02:52:41;41.61;32.72;58.37;;
60503;Laerm;51448;51.660;5.824;2024-01-10T02:55:09;34.79;32.80;45.74;;
60503;Laerm;51448;51.660;5.824;2024-01-10T02:57:36;42.21;32.30;58.16;;
60503;Laerm;51448;51.660;5.824;2024-01-10T03:00:05;34.51;32.20;46.64;;
60503;Laerm;51448;51.660;5.824;2024-01-10T03:02:33;41.17;32.24;58.57;;
60503;Laerm;51448;51.660;5.824;2024-01-10T03:05:01;41.45;32.26;58.52;;
60503;Laerm;51448;51.660;5.824;2024-01-10T03:07:29;33.94;31.96;45.13;;
60503;Laerm;51448;51.660;5.824;2024-01-10T03:09:56;41.32;32.29;58.81;;
60503;Laerm;51448;51.660;5.824;2024-01-10T03:12:24;38.81;32.25;58.43;;
60503;Laerm;51448;51.660;5.824;2024-01-10T03:14:54;38.57;31.91;58.50;;
60503;Laerm;51448;51.660;5.824;2024-01-10T03:17:22;40.91;31.92;58.35;;
60503;Laerm;51448;51.660;5.824;2024-01-10T03:19:50;34.36;32.28;48.42;;
60503;Laerm;51448;51.660;5.824;2024-01-10T03:22:17;41.35;32.47;58.40;;
60503;Laerm;51448;51.660;5.824;2024-01-10T03:24:45;41.45;32.30;58.58;;
60503;Laerm;51448;51.660;5.824;2024-01-10T03:27:12;38.70;32.38;54.03;;
60503;Laerm;51448;51.660;5.824;2024-01-10T03:29:40;41.09;32.21;58.54;;
60503;Laerm;51448;51.660;5.824;2024-01-10T03:32:07;34.65;32.40;47.88;;
60503;Laerm;51448;51.660;5.824;2024-01-10T03:34:35;41.52;32.49;58.54;;
60503;Laerm;51448;51.660;5.824;2024-01-10T03:37:03;41.61;32.82;58.71;;
60503;Laerm;51448;51.660;5.824;2024-01-10T03:39:31;34.80;32.84;41.67;;
60503;Laerm;51448;51.660;5.824;2024-01-10T03:41:58;41.58;32.29;58.68;;
60503;Laerm;51448;51.660;5.824;2024-01-10T03:44:27;40.50;32.23;58.13;;
60503;Laerm;51448;51.660;5.824;2024-01-10T03:46:54;38.63;32.79;58.70;;
60503;Laerm;51448;51.660;5.824;2024-01-10T03:49:22;42.37;32.85;58.73;;
60503;Laerm;51448;51.660;5.824;2024-01-10T03:51:49;35.30;32.72;50.39;;
60503;Laerm;51448;51.660;5.824;2024-01-10T03:54:17;42.03;32.12;58.81;;
60503;Laerm;51448;51.660;5.824;2024-01-10T03:56:45;41.76;32.46;58.69;;
60503;Laerm;51448;51.660;5.824;2024-01-10T03:59:12;34.13;32.01;38.95;;
60503;Laerm;51448;51.660;5.824;2024-01-10T04:01:40;41.77;32.35;58.80;;
60503;Laerm;51448;51.660;5.824;2024-01-10T04:04:07;34.72;32.29;46.99;;
60503;Laerm;51448;51.660;5.824;2024-01-10T04:06:35;41.55;32.75;58.62;;
60503;Laerm;51448;51.660;5.824;2024-01-10T04:09:02;41.92;32.72;58.95;;
60503;Laerm;51448;51.660;5.824;2024-01-10T04:11:30;34.99;32.57;46.65;;
60503;Laerm;51448;51.660;5.824;2024-01-10T04:13:57;43.08;32.11;58.67;;
60503;Laerm;51448;51.660;5.824;2024-01-10T04:16:25;39.47;32.76;57.85;;
60503;Laerm;51448;51.660;5.824;2024-01-10T04:18:54;39.27;32.68;58.35;;
60503;Laerm;51448;51.660;5.824;2024-01-10T04:21:23;43.28;32.52;58.65;;
60503;Laerm;51448;51.660;5.824;2024-01-10T04:23:50;37.20;32.36;61.31;;
60503;Laerm;51448;51.660;5.824;2024-01-10T04:26:19;45.55;32.57;66.38;;
60503;Laerm;51448;51.660;5.824;2024-01-10T04:28:46;41.89;32.72;58.83;;
60503;Laerm;51448;51.660;5.824;2024-01-10T04:31:14;34.89;32.68;49.37;;
60503;Laerm;51448;51.660;5.824;2024-01-10T04:33:42;44.32;32.82;58.72;;
60503;Laerm;51448;51.660;5.824;2024-01-10T04:36:09;35.32;32.93;46.80;;
60503;Laerm;51448;51.660;5.824;2024-01-10T04:38:37;45.80;32.36;61.47;;
60503;Laerm;51448;51.660;5.824;2024-01-10T04:41:04;45.82;32.42;60.67;;
60503;Laerm;51448;51.660;5.824;2024-01-10T04:43:32;34.77;32.39;45.30;;
60503;Laerm;51448;51.660;5.824;2024-01-10T04:45:59;41.57;32.19;58.12;;
60503;Laerm;51448;51.660;5.824;2024-01-10T04:48:27;40.87;32.54;58.74;;
60503;Laerm;51448;51.660;5.824;2024-01-10T04:50:55;38.23;32.14;58.72;;
60503;Laerm;51448;51.660;5.824;2024-01-10T04:53:22;41.56;32.43;58.73;;
60503;Laerm;51448;51.660;5.824;2024-01-10T04:55:50;37.72;32.43;51.29;;
60503;Laerm;51448;51.660;5.824;2024-01-10T04:58:20;41.88;32.26;58.99;;
60503;Laerm;51448;51.660;5.824;2024-01-10T05:00:48;44.12;32.43;60.18;;
60503;Laerm;51448;51.660;5.824;2024-01-10T05:03:16;41.34;32.59;58.35;;
60503;Laerm;51448;51.660;5.824;2024-01-10T05:05:43;45.89;32.79;58.95;;
60503;Laerm;51448;51.660;5.824;2024-01-10T05:08:11;45.43;32.30;61.59;;
60503;Laerm;51448;51.660;5.824;2024-01-10T05:10:39;44.67;33.02;58.88;;
60503;Laerm;51448;51.660;5.824;2024-01-10T05:13:06;42.97;32.31;58.73;;
60503;Laerm;51448;51.660;5.824;2024-01-10T05:15:34;44.58;32.71;57.13;;
60503;Laerm;51448;51.660;5.824;2024-01-10T05:18:01;42.12;32.52;58.94;;
60503;Laerm;51448;51.660;5.824;2024-01-10T05:20:30;41.92;32.63;58.82;;
60503;Laerm;51448;51.660;5.824;2024-01-10T05:22:59;42.04;32.62;58.62;;
60503;Laerm;51448;51.660;5.824;2024-01-10T05:25:29;45.37;32.63;60.08;;
60503;Laerm;51448;51.660;5.824;2024-01-10T05:27:57;39.20;32.44;53.52;;
60503;Laerm;51448;51.660;5.824;2024-01-10T05:30:24;45.39;32.98;58.77;;
60503;Laerm;51448;51.660;5.824;2024-01-10T05:32:55;46.72;32.20;61.41;;
60503;Laerm;51448;51.660;5.824;2024-01-10T05:35:23;42.96;33.01;59.74;;
60503;Laerm;51448;51.660;5.824;2024-01-10T05:37:50;43.61;32.41;59.73;;
60503;Laerm;51448;51.660;5.824;2024-01-10T05:40:18;45.05;32.89;57.60;;
60503;Laerm;51448;51.660;5.824;2024-01-10T05:42:46;46.51;33.19;58.69;;
60503;Laerm;51448;51.660;5.824;2024-01-10T05:45:13;48.37;33.18;65.74;;
60503;Laerm;51448;51.660;5.824;2024-01-10T05:47:41;43.89;32.96;56.47;;
60503;Laerm;51448;51.660;5.824;2024-01-10T05:50:09;48.68;33.27;63.51;;
60503;Laerm;51448;51.660;5.824;2024-01-10T05:52:36;48.87;33.00;61.56;;
60503;Laerm;51448;51.660;5.824;2024-01-10T05:55:04;47.64;33.95;58.66;;
60503;Laerm;51448;51.660;5.824;2024-01-10T05:57:34;42.99;33.09;58.83;;
60503;Laerm;51448;51.660;5.824;2024-01-10T06:00:04;44.55;33.39;58.96;;
60503;Laerm;51448;51.660;5.824;2024-01-10T06:02:32;46.23;33.50;59.74;;
60503;Laerm;51448;51.660;5.824;2024-01-10T06:05:00;46.59;33.17;61.96;;
60503;Laerm;51448;51.660;5.824;2024-01-10T06:07:32;47.57;33.95;63.49;;
60503;Laerm;51448;51.660;5.824;2024-01-10T06:10:00;48.18;33.17;60.48;;
60503;Laerm;51448;51.660;5.824;2024-01-10T06:12:28;44.63;33.32;58.66;;
60503;Laerm;51448;51.660;5.824;2024-01-10T06:14:56;46.59;33.28;58.75;;
60503;Laerm;51448;51.660;5.824;2024-01-10T06:17:24;47.21;32.93;58.82;;
60503;Laerm;51448;51.660;5.824;2024-01-10T06:19:52;46.28;32.94;59.10;;
60503;Laerm;51448;51.660;5.824;2024-01-10T06:22:19;45.79;33.23;58.70;;
60503;Laerm;51448;51.660;5.824;2024-01-10T06:24:55;48.52;32.79;60.02;;
60503;Laerm;51448;51.660;5.824;2024-01-10T06:27:23;43.72;32.21;54.56;;
60503;Laerm;51448;51.660;5.824;2024-01-10T06:29:51;47.49;33.21;58.75;;
60503;Laerm;51448;51.660;5.824;2024-01-10T06:32:19;41.94;32.70;59.35;;
60503;Laerm;51448;51.660;5.824;2024-01-10T06:34:47;50.70;34.61;63.20;;
60503;Laerm;51448;51.660;5.824;2024-01-10T06:37:15;47.02;34.92;58.73;;
60503;Laerm;51448;51.660;5.824;2024-01-10T06:39:43;48.28;34.79;65.05;;
60503;Laerm;51448;51.660;5.824;2024-01-10T06:42:11;49.40;33.88;60.26;;
60503;Laerm;51448;51.660;5.824;2024-01-10T06:44:39;49.11;34.24;62.83;;
60503;Laerm;51448;51.660;5.824;2024-01-10T06:47:07;46.17;33.36;57.82;;
60503;Laerm;51448;51.660;5.824;2024-01-10T06:49:35;46.27;33.27;58.91;;
60503;Laerm;51448;51.660;5.824;2024-01-10T06:52:03;47.05;33.81;62.44;;
60503;Laerm;51448;51.660;5.824;2024-01-10T06:54:30;48.30;33.81;64.75;;
60503;Laerm;51448;51.660;5.824;2024-01-10T06:56:58;47.75;34.10;65.55;;
60503;Laerm;51448;51.660;5.824;2024-01-10T06:59:25;52.77;33.83;74.17;;
60503;Laerm;51448;51.660;5.824;2024-01-10T07:01:53;48.99;34.49;62.68;;
60503;Laerm;51448;51.660;5.824;2024-01-10T07:04:22;46.19;34.00;59.50;;
60503;Laerm;51448;51.660;5.824;2024-01-10T07:06:52;44.57;33.49;58.82;;
60503;Laerm;51448;51.660;5.824;2024-01-10T07:09:19;49.47;34.55;61.58;;
60503;Laerm;51448;51.660;5.824;2024-01-10T07:11:48;44.76;33.90;55.29;;
60503;Laerm;51448;51.660;5.824;2024-01-10T07:14:16;46.33;33.43;62.08;;
60503;Laerm;51448;51.660;5.824;2024-01-10T07:16:44;47.31;33.48;60.49;;
60503;Laerm;51448;51.660;5.824;2024-01-10T07:19:14;45.73;33.22;60.21;;
60503;Laerm;51448;51.660;5.824;2024-01-10T07:21:42;44.18;33.02;63.61;;
60503;Laerm;51448;51.660;5.824;2024-01-10T07:24:10;44.92;33.31;57.82;;
60503;Laerm;51448;51.660;5.824;2024-01-10T07:26:38;47.15;33.35;60.38;;
60503;Laerm;51448;51.660;5.824;2024-01-10T07:29:05;47.96;32.96;68.68;;
60503;Laerm;51448;51.660;5.824;2024-01-10T07:31:36;44.84;33.33;58.02;;
60503;Laerm;51448;51.660;5.824;2024-01-10T07:34:04;54.81;32.89;84.05;;
60503;Laerm;51448;51.660;5.824;2024-01-10T07:36:33;48.29;33.74;60.60;;
60503;Laerm;51448;51.660;5.824;2024-01-10T07:39:01;45.60;33.26;59.27;;
60503;Laerm;51448;51.660;5.824;2024-01-10T07:41:31;45.84;32.86;58.95;;
60503;Laerm;51448;51.660;5.824;2024-01-10T07:43:58;42.74;33.39;56.18;;
60503;Laerm;51448;51.660;5.824;2024-01-10T07:46:26;47.00;33.28;59.36;;
60503;Laerm;51448;51.660;5.824;2024-01-10T07:48:56;45.09;33.55;61.79;;
60503;Laerm;51448;51.660;5.824;2024-01-10T07:51:24;44.76;33.22;70.52;;
60503;Laerm;51448;51.660;5.824;2024-01-10T07:53:51;44.07;33.32;59.22;;
60503;Laerm;51448;51.660;5.824;2024-01-10T07:56:19;46.19;33.86;58.91;;
60503;Laerm;51448;51.660;5.824;2024-01-10T07:58:47;47.35;33.57;58.89;;
60503;Laerm;51448;51.660;5.824;2024-01-10T08:01:16;43.73;33.13;58.90;;
60503;Laerm;51448;51.660;5.824;2024-01-10T08:03:43;39.34;32.32;53.70;;
60503;Laerm;51448;51.660;5.824;2024-01-10T08:06:11;44.19;32.85;58.85;;
60503;Laerm;51448;51.660;5.824;2024-01-10T08:08:53;46.21;33.05;58.37;;
60503;Laerm;51448;51.660;5.824;2024-01-10T08:11:21;47.86;33.12;60.81;;
60503;Laerm;51448;51.660;5.824;2024-01-10T08:13:48;44.77;32.83;70.22;;
60503;Laerm;51448;51.660;5.824;2024-01-10T08:16:19;45.71;33.51;60.50;;
60503;Laerm;51448;51.660;5.824;2024-01-10T08:18:46;45.75;33.25;63.81;;
60503;Laerm;51448;51.660;5.824;2024-01-10T08:21:14;45.08;33.46;61.70;;
60503;Laerm;51448;51.660;5.824;2024-01-10T08:23:42;48.82;32.87;77.73;;
60503;Laerm;51448;51.660;5.824;2024-01-10T08:26:09;46.16;33.88;63.95;;
60503;Laerm;51448;51.660;5.824;2024-01-10T08:28:37;48.24;32.43;61.09;;
60503;Laerm;51448;51.660;5.824;2024-01-10T08:31:05;43.89;33.17;70.93;;
60503;Laerm;51448;51.660;5.824;2024-01-10T08:33:33;42.88;33.06;58.66;;
60503;Laerm;51448;51.660;5.824;2024-01-10T08:36:00;44.53;33.34;60.70;;
60503;Laerm;51448;51.660;5.824;2024-01-10T08:38:28;44.03;32.56;62.37;;
60503;Laerm;51448;51.660;5.824;2024-01-10T08:40:56;48.23;33.27;60.06;;
60503;Laerm;51448;51.660;5.824;2024-01-10T08:43:23;42.22;33.73;56.05;;
60503;Laerm;51448;51.660;5.824;2024-01-10T08:45:51;47.61;33.58;60.55;;
60503;Laerm;51448;51.660;5.824;2024-01-10T08:48:18;48.24;33.49;62.47;;
60503;Laerm;51448;51.660;5.824;2024-01-10T08:50:46;45.72;33.60;65.43;;
60503;Laerm;51448;51.660;5.824;2024-01-10T08:53:14;49.01;34.24;59.82;;
60503;Laerm;51448;51.660;5.824;2024-01-10T08:55:42;49.05;34.40;67.85;;
60503;Laerm;51448;51.660;5.824;2024-01-10T08:58:09;50.87;35.12;71.45;;
60503;Laerm;51448;51.660;5.824;2024-01-10T09:00:37;48.59;34.90;66.25;;
60503;Laerm;51448;51.660;5.824;2024-01-10T09:03:05;53.79;34.88;71.38;;
60503;Laerm;51448;51.660;5.824;2024-01-10T09:05:32;50.05;34.30;68.02;;
60503;Laerm;51448;51.660;5.824;2024-01-10T09:08:00;49.56;33.98;71.60;;
60503;Laerm;51448;51.660;5.824;2024-01-10T09:10:28;53.08;34.39;73.80;;
60503;Laerm;51448;51.660;5.824;2024-01-10T09:12:58;50.87;34.98;69.56;;
60503;Laerm;51448;51.660;5.824;2024-01-10T09:15:26;51.25;34.05;68.99;;
60503;Laerm;51448;51.660;5.824;2024-01-10T09:17:54;48.77;34.57;68.69;;
60503;Laerm;51448;51.660;5.824;2024-01-10T09:20:22;50.63;34.29;72.79;;
60503;Laerm;51448;51.660;5.824;2024-01-10T09:22:51;44.45;34.30;62.16;;
60503;Laerm;51448;51.660;5.824;2024-01-10T09:25:21;47.88;34.51;70.40;;
60503;Laerm;51448;51.660;5.824;2024-01-10T09:27:49;50.90;33.94;67.78;;
60503;Laerm;51448;51.660;5.824;2024-01-10T09:30:16;51.11;34.53;72.62;;
60503;Laerm;51448;51.660;5.824;2024-01-10T09:32:46;48.12;34.49;67.71;;
60503;Laerm;51448;51.660;5.824;2024-01-10T09:35:14;48.67;34.14;70.78;;
60503;Laerm;51448;51.660;5.824;2024-01-10T09:37:43;49.75;34.37;70.14;;
60503;Laerm;51448;51.660;5.824;2024-01-10T09:40:15;53.18;35.13;74.90;;
60503;Laerm;51448;51.660;5.824;2024-01-10T09:42:44;49.98;34.21;69.54;;
60503;Laerm;51448;51.660;5.824;2024-01-10T09:45:12;46.88;33.29;68.47;;
60503;Laerm;51448;51.660;5.824;2024-01-10T09:47:42;44.50;34.19;62.37;;
60503;Laerm;51448;51.660;5.824;2024-01-10T09:50:13;47.06;34.79;65.46;;
60503;Laerm;51448;51.660;5.824;2024-01-10T09:52:51;46.61;34.63;64.97;;
60503;Laerm;51448;51.660;5.824;2024-01-10T09:55:22;51.03;34.98;71.62;;
60503;Laerm;51448;51.660;5.824;2024-01-10T09:57:52;48.81;34.26;68.64;;
60503;Laerm;51448;51.660;5.824;2024-01-10T10:00:22;42.24;34.21;61.04;;
60503;Laerm;51448;51.660;5.824;2024-01-10T10:02:54;48.20;34.87;74.39;;
60503;Laerm;51448;51.660;5.824;2024-01-10T10:05:23;47.12;34.74;60.66;;
60503;Laerm;51448;51.660;5.824;2024-01-10T10:07:52;41.94;34.43;54.71;;
60503;Laerm;51448;51.660;5.824;2024-01-10T10:10:22;47.48;34.42;67.25;;
60503;Laerm;51448;51.660;5.824;2024-01-10T10:12:52;44.59;34.66;63.16;;
60503;Laerm;51448;51.660;5.824;2024-01-10T10:15:23;46.40;34.70;65.06;;
60503;Laerm;51448;51.660;5.824;2024-01-10T10:17:51;44.60;34.50;57.61;;
60503;Laerm;51448;51.660;5.824;2024-01-10T10:20:27;40.15;34.28;55.99;;
60503;Laerm;51448;51.660;5.824;2024-01-10T10:23:05;48.80;34.77;71.68;;
60503;Laerm;51448;51.660;5.824;2024-01-10T10:25:44;43.80;34.33;58.65;;
60503;Laerm;51448;51.660;5.824;2024-01-10T10:28:13;48.59;34.67;70.74;;
60503;Laerm;51448;51.660;5.824;2024-01-10T10:30:56;42.98;34.15;57.75;;
60503;Laerm;51448;51.660;5.824;2024-01-10T10:33:24;45.95;34.87;62.22;;
60503;Laerm;51448;51.660;5.824;2024-01-10T10:35:52;46.31;34.54;67.62;;
60503;Laerm;51448;51.660;5.824;2024-01-10T10:38:22;45.03;34.33;67.75;;
60503;Laerm;51448;51.660;5.824;2024-01-10T10:40:51;40.97;33.75;56.11;;
60503;Laerm;51448;51.660;5.824;2024-01-10T10:43:21;41.55;34.29;56.67;;
60503;Laerm;51448;51.660;5.824;2024-01-10T10:45:50;43.64;34.23;57.82;;
60503;Laerm;51448;51.660;5.824;2024-01-10T10:48:20;44.12;33.60;68.11;;
60503;Laerm;51448;51.660;5.824;2024-01-10T10:51:09;46.18;34.57;63.64;;
60503;Laerm;51448;51.660;5.824;2024-01-10T10:53:39;45.87;34.11;65.00;;
60503;Laerm;51448;51.660;5.824;2024-01-10T10:56:08;45.45;34.73;63.02;;
60503;Laerm;51448;51.660;5.824;2024-01-10T10:58:41;43.79;34.12;60.98;;
60503;Laerm;51448;51.660;5.824;2024-01-10T11:01:12;50.15;34.18;73.72;;
60503;Laerm;51448;51.660;5.824;2024-01-10T11:03:41;41.83;33.77;65.76;;
60503;Laerm;51448;51.660;5.824;2024-01-10T11:06:17;43.68;33.27;75.36;;
60503;Laerm;51448;51.660;5.824;2024-01-10T11:09:04;42.95;33.35;59.27;;
60503;Laerm;51448;51.660;5.824;2024-01-10T11:12:08;48.34;33.59;68.30;;
60503;Laerm;51448;51.660;5.824;2024-01-10T11:15:07;49.65;34.10;68.83;;
60503;Laerm;51448;51.660;5.824;2024-01-10T11:18:12;40.76;33.67;55.07;;
60503;Laerm;51448;51.660;5.824;2024-01-10T11:24:18;43.05;33.58;61.49;;
60503;Laerm;51448;51.660;5.824;2024-01-10T11:26:47;47.84;33.49;67.96;;
60503;Laerm;51448;51.660;5.824;2024-01-10T11:29:15;40.18;33.30;54.47;;
60503;Laerm;51448;51.660;5.824;2024-01-10T11:31:50;43.90;33.93;60.96;;
60503;Laerm;51448;51.660;5.824;2024-01-10T11:34:24;45.56;33.24;65.50;;
60503;Laerm;51448;51.660;5.824;2024-01-10T11:37:11;40.66;33.17;55.63;;
60503;Laerm;51448;51.660;5.824;2024-01-10T11:39:42;41.52;33.10;53.72;;
60503;Laerm;51448;51.660;5.824;2024-01-10T11:42:11;44.06;33.77;67.39;;
60503;Laerm;51448;51.660;5.824;2024-01-10T11:44:47;42.51;33.35;53.54;;
60503;Laerm;51448;51.660;5.824;2024-01-10T11:47:19;41.43;33.22;62.45;;
60503;Laerm;51448;51.660;5.824;2024-01-10T11:49:56;39.03;33.69;53.82;;
60503;Laerm;51448;51.660;5.824;2024-01-10T11:52:33;47.22;33.56;69.75;;
60503;Laerm;51448;51.660;5.824;2024-01-10T11:55:01;43.07;33.99;56.04;;
60503;Laerm;51448;51.660;5.824;2024-01-10T11:57:30;46.73;33.67;71.22;;
60503;Laerm;51448;51.660;5.824;2024-01-10T12:00:00;42.09;33.74;54.15;;
60503;Laerm;51448;51.660;5.824;2024-01-10T12:02:31;45.38;34.80;62.51;;
60503;Laerm;51448;51.660;5.824;2024-01-10T12:05:00;41.02;34.28;56.28;;
60503;Laerm;51448;51.660;5.824;2024-01-10T12:07:29;48.77;35.40;66.97;;
60503;Laerm;51448;51.660;5.824;2024-01-10T12:09:57;50.80;34.21;70.96;;
60503;Laerm;51448;51.660;5.824;2024-01-10T12:12:25;49.31;34.28;66.89;;
60503;Laerm;51448;51.660;5.824;2024-01-10T12:14:52;50.49;33.90;75.94;;
60503;Laerm;51448;51.660;5.824;2024-01-10T12:17:20;51.02;34.16;68.97;;
60503;Laerm;51448;51.660;5.824;2024-01-10T12:19:48;40.45;33.45;61.72;;
60503;Laerm;51448;51.660;5.824;2024-01-10T12:22:16;39.10;33.41;54.59;;
60503;Laerm;51448;51.660;5.824;2024-01-10T12:24:49;47.48;33.42;68.62;;
60503;Laerm;51448;51.660;5.824;2024-01-10T12:27:19;49.97;34.23;68.35;;
60503;Laerm;51448;51.660;5.824;2024-01-10T12:29:50;45.85;33.56;66.96;;
60503;Laerm;51448;51.660;5.824;2024-01-10T12:32:20;45.20;33.36;65.75;;
60503;Laerm;51448;51.660;5.824;2024-01-10T12:35:02;49.04;33.53;74.71;;
60503;Laerm;51448;51.660;5.824;2024-01-10T12:37:31;46.67;33.49;67.30;;
60503;Laerm;51448;51.660;5.824;2024-01-10T12:39:59;48.34;33.33;66.42;;
60503;Laerm;51448;51.660;5.824;2024-01-10T12:42:27;46.75;33.49;66.04;;
60503;Laerm;51448;51.660;5.824;2024-01-10T12:44:54;40.72;33.17;56.25;;
60503;Laerm;51448;51.660;5.824;2024-01-10T12:47:24;41.98;33.22;61.75;;
60503;Laerm;51448;51.660;5.824;2024-01-10T12:49:52;44.63;33.22;66.14;;
60503;Laerm;51448;51.660;5.824;2024-01-10T12:52:21;44.01;33.46;59.44;;
60503;Laerm;51448;51.660;5.824;2024-01-10T12:54:52;42.34;33.04;62.46;;
60503;Laerm;51448;51.660;5.824;2024-01-10T12:57:21;46.16;33.41;64.50;;
60503;Laerm;51448;51.660;5.824;2024-01-10T12:59:48;47.54;33.84;65.57;;
60503;Laerm;51448;51.660;5.824;2024-01-10T13:02:16;47.18;33.23;66.77;;
60503;Laerm;51448;51.660;5.824;2024-01-10T13:04:45;48.69;33.75;66.94;;
60503;Laerm;51448;51.660;5.824;2024-01-10T13:07:13;48.44;33.08;68.57;;
60503;Laerm;51448;51.660;5.824;2024-01-10T13:09:40;52.76;33.55;74.69;;
60503;Laerm;51448;51.660;5.824;2024-01-10T13:12:08;49.35;34.30;69.02;;
60503;Laerm;51448;51.660;5.824;2024-01-10T13:14:36;46.25;33.10;60.81;;
60503;Laerm;51448;51.660;5.824;2024-01-10T13:17:03;42.48;33.08;56.13;;
60503;Laerm;51448;51.660;5.824;2024-01-10T13:19:32;44.40;33.05;65.03;;
60503;Laerm;51448;51.660;5.824;2024-01-10T13:22:00;41.90;33.26;66.23;;
60503;Laerm;51448;51.660;5.824;2024-01-10T13:24:29;46.39;33.92;62.12;;
60503;Laerm;51448;51.660;5.824;2024-01-10T13:26:59;47.57;33.23;70.37;;
60503;Laerm;51448;51.660;5.824;2024-01-10T13:29:27;47.66;33.12;65.56;;
60503;Laerm;51448;51.660;5.824;2024-01-10T13:31:55;45.62;33.17;67.40;;
60503;Laerm;51448;51.660;5.824;2024-01-10T13:34:22;45.54;33.28;72.39;;
60503;Laerm;51448;51.660;5.824;2024-01-10T13:36:50;47.54;32.76;68.82;;
60503;Laerm;51448;51.660;5.824;2024-01-10T13:39:20;43.16;32.77;66.20;;
60503;Laerm;51448;51.660;5.824;2024-01-10T13:41:48;47.69;33.06;66.65;;
60503;Laerm;51448;51.660;5.824;2024-01-10T13:44:16;43.15;33.13;62.58;;
60503;Laerm;51448;51.660;5.824;2024-01-10T13:46:44;36.40;32.98;50.20;;
60503;Laerm;51448;51.660;5.824;2024-01-10T13:49:11;54.75;32.49;66.28;;
60503;Laerm;51448;51.660;5.824;2024-01-10T13:51:39;56.72;32.86;66.36;;
60503;Laerm;51448;51.660;5.824;2024-01-10T13:54:08;44.34;32.47;61.10;;
60503;Laerm;51448;51.660;5.824;2024-01-10T13:56:38;46.83;33.57;57.69;;
60503;Laerm;51448;51.660;5.824;2024-01-10T13:59:07;43.50;33.28;59.82;;